createdAt,value
2018-12-08T00:00:00.080Z,19.80
2018-12-08T00:02:28.727Z,19.80
2018-12-08T00:04:57.355Z,19.80
2018-12-08T00:07:26.037Z,19.80
2018-12-08T00:09:54.707Z,19.80
2018-12-08T00:12:23.345Z,19.80
2018-12-08T00:14:52.035Z,19.80
2018-12-08T00:17:20.738Z,19.80
2018-12-08T00:19:49.382Z,19.80
2018-12-08T00:22:17.986Z,19.80
2018-12-08T00:24:46.627Z,19.80
2018-12-08T00:27:15.252Z,19.80
2018-12-08T00:29:43.889Z,19.80
2018-12-08T00:32:12.537Z,19.70
2018-12-08T00:34:41.173Z,19.80
2018-12-08T00:37:09.801Z,19.80
2018-12-08T00:39:38.439Z,19.80
2018-12-08T00:42:07.106Z,19.70
2018-12-08T00:44:35.827Z,19.80
2018-12-08T00:47:04.488Z,19.80
2018-12-08T00:49:33.143Z,19.80
2018-12-08T00:52:01.809Z,19.70
2018-12-08T00:54:30.450Z,19.70
2018-12-08T00:56:59.111Z,19.70
2018-12-08T00:59:27.757Z,19.70
2018-12-08T01:01:56.372Z,19.80
2018-12-08T01:04:25.006Z,19.70
2018-12-08T01:06:53.677Z,19.70
2018-12-08T01:09:22.313Z,19.70
2018-12-08T01:11:50.917Z,19.70
2018-12-08T01:14:19.609Z,19.70
2018-12-08T01:16:48.274Z,19.70
2018-12-08T01:19:16.907Z,19.70
2018-12-08T01:21:45.542Z,19.70
2018-12-08T01:24:14.693Z,19.70
2018-12-08T01:26:43.350Z,19.70
2018-12-08T01:29:12.018Z,19.70
2018-12-08T01:31:40.649Z,19.70
2018-12-08T01:34:09.326Z,19.70
2018-12-08T01:36:38.047Z,19.70
2018-12-08T01:39:07.675Z,19.70
2018-12-08T01:41:36.421Z,19.70
2018-12-08T01:44:05.102Z,19.70
2018-12-08T01:46:33.785Z,19.70
2018-12-08T01:49:02.457Z,19.70
2018-12-08T01:51:31.842Z,19.70
2018-12-08T01:54:00.898Z,19.70
2018-12-08T01:56:29.632Z,19.70
2018-12-08T01:58:58.414Z,19.70
2018-12-08T02:01:27.177Z,19.70
2018-12-08T02:03:56.053Z,19.70
2018-12-08T02:06:24.779Z,19.70
2018-12-08T02:08:53.456Z,19.70
2018-12-08T02:11:25.123Z,19.70
2018-12-08T02:13:52.869Z,19.70
2018-12-08T02:16:21.600Z,19.70
2018-12-08T02:18:50.301Z,19.70
2018-12-08T02:21:18.974Z,19.70
2018-12-08T02:23:47.714Z,19.70
2018-12-08T02:26:17.177Z,19.70
2018-12-08T02:28:45.906Z,19.70
2018-12-08T02:31:14.674Z,19.70
2018-12-08T02:33:43.363Z,19.70
2018-12-08T02:36:12.547Z,19.70
2018-12-08T02:38:42.192Z,19.70
2018-12-08T02:41:11.320Z,19.70
2018-12-08T02:43:40.059Z,19.70
2018-12-08T02:46:08.739Z,19.70
2018-12-08T02:48:37.436Z,19.70
2018-12-08T02:51:06.237Z,19.70
2018-12-08T02:53:35.044Z,19.70
2018-12-08T02:56:03.817Z,19.60
2018-12-08T02:58:32.533Z,19.60
2018-12-08T03:01:01.285Z,19.60
2018-12-08T03:03:29.999Z,19.60
2018-12-08T03:05:58.697Z,19.60
2018-12-08T03:08:27.510Z,19.60
2018-12-08T03:10:56.199Z,19.60
2018-12-08T03:13:24.908Z,19.60
2018-12-08T03:15:53.579Z,19.60
2018-12-08T03:18:22.374Z,19.60
2018-12-08T03:20:51.028Z,19.60
2018-12-08T03:23:19.642Z,19.60
2018-12-08T03:25:48.272Z,19.60
2018-12-08T03:28:16.917Z,19.60
2018-12-08T03:30:45.611Z,19.60
2018-12-08T03:33:14.331Z,19.60
2018-12-08T03:35:42.935Z,19.60
2018-12-08T03:38:11.604Z,19.60
2018-12-08T03:40:40.251Z,19.60
2018-12-08T03:43:08.878Z,19.60
2018-12-08T03:45:37.558Z,19.60
2018-12-08T03:48:06.180Z,19.60
2018-12-08T03:50:34.840Z,19.60
2018-12-08T03:53:03.494Z,19.60
2018-12-08T03:55:32.132Z,19.60
2018-12-08T03:58:00.762Z,19.60
2018-12-08T04:00:29.395Z,19.60
2018-12-08T04:02:58.091Z,19.60
2018-12-08T04:05:26.802Z,19.60
2018-12-08T04:07:55.566Z,19.60
2018-12-08T04:10:24.245Z,19.60
2018-12-08T04:12:52.961Z,19.60
2018-12-08T04:15:21.645Z,19.60
2018-12-08T04:17:50.354Z,19.60
2018-12-08T04:20:19.172Z,19.60
2018-12-08T04:22:47.844Z,19.60
2018-12-08T04:25:16.499Z,19.60
2018-12-08T04:27:45.121Z,19.60
2018-12-08T04:30:13.761Z,19.60
2018-12-08T04:32:42.432Z,19.60
2018-12-08T04:35:11.043Z,19.60
2018-12-08T04:37:39.687Z,19.60
2018-12-08T04:40:08.310Z,19.60
2018-12-08T04:42:36.946Z,19.60
2018-12-08T04:45:06.176Z,19.60
2018-12-08T04:47:35.406Z,19.60
2018-12-08T04:50:04.602Z,19.60
2018-12-08T04:52:34.237Z,19.50
2018-12-08T04:55:02.885Z,19.60
2018-12-08T04:57:31.538Z,19.60
2018-12-08T05:00:00.210Z,19.60
2018-12-08T05:02:28.875Z,19.60
2018-12-08T05:04:57.523Z,19.60
2018-12-08T05:07:26.179Z,19.60
2018-12-08T05:09:54.829Z,19.60
2018-12-08T05:12:23.422Z,19.60
2018-12-08T05:14:52.057Z,19.60
2018-12-08T05:17:20.697Z,19.60
2018-12-08T05:19:49.388Z,19.60
2018-12-08T05:22:18.123Z,19.60
2018-12-08T05:24:47.567Z,19.60
2018-12-08T05:27:16.796Z,19.60
2018-12-08T05:29:45.490Z,19.60
2018-12-08T05:32:14.177Z,19.60
2018-12-08T05:34:42.864Z,19.60
2018-12-08T05:37:12.026Z,19.60
2018-12-08T05:39:40.685Z,19.60
2018-12-08T05:42:09.377Z,19.50
2018-12-08T05:44:38.054Z,19.60
2018-12-08T05:47:06.692Z,19.60
2018-12-08T05:49:35.370Z,19.50
2018-12-08T05:52:04.035Z,19.60
2018-12-08T05:54:32.694Z,19.60
2018-12-08T05:57:01.335Z,19.50
2018-12-08T05:59:29.987Z,19.60
2018-12-08T06:01:58.625Z,19.50
2018-12-08T06:04:27.278Z,19.60
2018-12-08T06:06:55.968Z,19.60
2018-12-08T06:09:24.597Z,19.50
2018-12-08T06:11:53.251Z,19.50
2018-12-08T06:14:21.906Z,19.50
2018-12-08T06:16:50.560Z,19.60
2018-12-08T06:19:19.167Z,19.50
2018-12-08T06:21:47.795Z,19.50
2018-12-08T06:24:16.462Z,19.50
2018-12-08T06:27:10.430Z,19.60
2018-12-08T06:29:39.514Z,19.60
2018-12-08T06:32:08.152Z,19.60
2018-12-08T06:34:36.810Z,19.60
2018-12-08T06:37:05.487Z,19.60
2018-12-08T06:39:34.158Z,19.50
2018-12-08T06:42:02.830Z,19.60
2018-12-08T06:44:31.489Z,19.70
2018-12-08T06:47:00.131Z,19.80
2018-12-08T06:49:28.738Z,19.80
2018-12-08T06:52:08.901Z,19.80
2018-12-08T06:54:52.100Z,19.80
2018-12-08T06:57:21.062Z,19.70
2018-12-08T07:00:22.151Z,19.70
2018-12-08T07:02:51.391Z,19.70
2018-12-08T07:05:20.061Z,19.70
2018-12-08T07:07:51.586Z,19.70
2018-12-08T07:10:21.053Z,19.70
2018-12-08T07:12:49.738Z,19.70
2018-12-08T07:15:23.083Z,19.70
2018-12-08T07:17:54.154Z,19.70
2018-12-08T07:20:22.942Z,19.60
2018-12-08T07:22:51.594Z,19.60
2018-12-08T07:25:21.142Z,19.60
2018-12-08T07:27:50.404Z,19.60
2018-12-08T07:30:22.890Z,19.60
2018-12-08T07:32:51.555Z,19.60
2018-12-08T07:35:20.183Z,19.60
2018-12-08T07:37:48.881Z,19.60
2018-12-08T07:40:17.621Z,19.60
2018-12-08T07:42:46.302Z,19.60
2018-12-08T07:45:15.233Z,19.60
2018-12-08T07:47:44.118Z,19.60
2018-12-08T07:50:12.781Z,19.50
2018-12-08T07:52:41.417Z,19.60
2018-12-08T07:55:10.118Z,19.50
2018-12-08T07:57:38.789Z,19.60
2018-12-08T08:00:10.859Z,19.60
2018-12-08T08:02:40.074Z,19.60
2018-12-08T08:05:09.576Z,19.60
2018-12-08T08:07:38.399Z,19.60
2018-12-08T08:10:09.684Z,19.60
2018-12-08T08:12:38.626Z,19.60
2018-12-08T08:15:09.303Z,19.60
2018-12-08T08:17:38.238Z,19.60
2018-12-08T08:20:09.315Z,19.60
2018-12-08T08:22:37.980Z,19.70
2018-12-08T08:25:08.254Z,19.60
2018-12-08T08:27:36.929Z,19.60
2018-12-08T08:30:06.783Z,19.70
2018-12-08T08:32:35.416Z,19.60
2018-12-08T08:35:04.313Z,19.60
2018-12-08T08:37:32.929Z,19.60
2018-12-08T08:40:01.565Z,19.60
2018-12-08T08:42:30.210Z,19.60
2018-12-08T08:44:58.844Z,19.60
2018-12-08T08:47:27.503Z,19.60
2018-12-08T08:49:56.205Z,19.60
2018-12-08T08:52:24.854Z,19.60
2018-12-08T08:54:53.494Z,19.60
2018-12-08T08:57:22.107Z,19.60
2018-12-08T08:59:50.769Z,19.60
2018-12-08T09:02:19.433Z,19.60
2018-12-08T09:04:48.136Z,19.60
2018-12-08T09:07:17.567Z,19.60
2018-12-08T09:09:46.757Z,19.60
2018-12-08T09:12:16.050Z,19.50
2018-12-08T09:14:44.706Z,19.60
2018-12-08T09:17:13.405Z,19.50
2018-12-08T09:19:42.542Z,19.60
2018-12-08T09:22:11.203Z,19.60
2018-12-08T09:24:39.906Z,19.50
2018-12-08T09:27:08.554Z,19.50
2018-12-08T09:29:37.229Z,19.50
2018-12-08T09:32:05.894Z,19.50
2018-12-08T09:34:34.547Z,19.50
2018-12-08T09:37:03.201Z,19.50
2018-12-08T09:39:32.222Z,19.50
2018-12-08T09:42:00.875Z,19.50
2018-12-08T09:44:29.496Z,19.50
2018-12-08T09:46:58.514Z,19.50
2018-12-08T09:49:27.188Z,19.50
2018-12-08T09:51:55.842Z,19.50
2018-12-08T09:54:24.492Z,19.50
2018-12-08T09:56:53.161Z,19.50
2018-12-08T09:59:21.833Z,19.50
2018-12-08T10:01:50.452Z,19.50
2018-12-08T10:04:23.524Z,19.50
2018-12-08T10:06:52.116Z,19.50
2018-12-08T10:09:20.758Z,19.40
2018-12-08T10:11:49.407Z,19.50
2018-12-08T10:14:18.050Z,19.50
2018-12-08T10:16:46.682Z,19.80
2018-12-08T10:19:15.328Z,19.70
2018-12-08T10:21:43.944Z,19.80
2018-12-08T10:24:12.569Z,19.90
2018-12-08T10:26:41.361Z,19.90
2018-12-08T10:29:10.032Z,20.00
2018-12-08T10:31:38.666Z,19.90
2018-12-08T10:34:07.318Z,19.90
2018-12-08T10:36:37.134Z,19.90
2018-12-08T10:39:07.867Z,19.90
2018-12-08T10:41:37.078Z,19.90
2018-12-08T10:44:05.721Z,19.90
2018-12-08T10:46:34.353Z,19.90
2018-12-08T10:49:05.347Z,20.00
2018-12-08T10:51:34.664Z,19.90
2018-12-08T10:54:06.300Z,22.30
2018-12-08T10:56:34.923Z,20.00
2018-12-08T10:59:03.526Z,20.00
2018-12-08T11:01:37.270Z,20.00
2018-12-08T11:04:05.937Z,20.00
2018-12-08T11:06:34.573Z,20.00
2018-12-08T11:09:03.337Z,20.00
2018-12-08T11:11:32.010Z,20.00
2018-12-08T11:14:00.701Z,20.00
2018-12-08T11:16:29.360Z,20.00
2018-12-08T11:18:58.036Z,20.00
2018-12-08T11:21:26.647Z,20.00
2018-12-08T11:23:55.285Z,20.00
2018-12-08T11:26:23.922Z,20.00
2018-12-08T11:28:52.553Z,20.10
2018-12-08T11:31:21.165Z,20.00
2018-12-08T11:33:49.806Z,20.00
2018-12-08T11:36:18.474Z,20.00
2018-12-08T11:38:47.118Z,20.10
2018-12-08T11:41:15.729Z,20.00
2018-12-08T11:43:44.348Z,20.00
2018-12-08T11:46:13.119Z,20.00
2018-12-08T11:48:41.782Z,20.00
2018-12-08T11:51:10.436Z,20.10
2018-12-08T11:53:39.146Z,20.00
2018-12-08T11:56:07.938Z,20.00
2018-12-08T11:58:36.579Z,20.10
2018-12-08T12:01:05.218Z,20.00
2018-12-08T12:03:33.889Z,20.00
2018-12-08T12:06:02.490Z,20.00
2018-12-08T12:08:31.169Z,20.00
2018-12-08T12:10:59.955Z,20.00
2018-12-08T12:13:28.626Z,20.00
2018-12-08T12:15:57.274Z,20.00
2018-12-08T12:18:25.923Z,20.00
2018-12-08T12:20:54.565Z,20.00
2018-12-08T12:23:23.270Z,20.10
2018-12-08T12:25:52.001Z,20.00
2018-12-08T12:28:21.370Z,20.10
2018-12-08T12:30:50.332Z,20.10
2018-12-08T12:33:19.002Z,20.10
2018-12-08T12:35:47.601Z,20.10
2018-12-08T12:38:16.464Z,20.20
2018-12-08T12:40:45.726Z,20.20
2018-12-08T12:43:14.457Z,20.20
2018-12-08T12:45:43.189Z,20.20
2018-12-08T12:48:11.873Z,20.20
2018-12-08T12:50:40.489Z,20.20
2018-12-08T12:53:11.196Z,20.20
2018-12-08T12:55:39.807Z,20.20
2018-12-08T12:58:08.498Z,20.20
2018-12-08T13:00:37.146Z,20.20
2018-12-08T13:03:05.810Z,20.20
2018-12-08T13:05:34.429Z,20.20
2018-12-08T13:08:03.084Z,20.20
2018-12-08T13:10:31.743Z,20.20
2018-12-08T13:13:00.361Z,20.20
2018-12-08T13:15:29.030Z,20.20
2018-12-08T13:17:57.729Z,20.20
2018-12-08T13:20:26.369Z,20.20
2018-12-08T13:22:55.177Z,20.20
2018-12-08T13:25:25.914Z,20.20
2018-12-08T13:27:54.561Z,20.20
2018-12-08T13:30:23.218Z,20.20
2018-12-08T13:32:51.835Z,20.20
2018-12-08T13:35:31.557Z,20.20
2018-12-08T13:38:00.195Z,20.20
2018-12-08T13:40:28.815Z,20.20
2018-12-08T13:42:57.584Z,20.20
2018-12-08T13:45:26.385Z,20.20
2018-12-08T13:47:55.040Z,20.20
2018-12-08T13:50:23.950Z,20.20
2018-12-08T13:52:52.654Z,20.20
2018-12-08T13:55:21.317Z,20.10
2018-12-08T13:57:49.963Z,20.10
2018-12-08T14:00:18.647Z,20.10
2018-12-08T14:02:47.260Z,20.10
2018-12-08T14:05:15.886Z,20.00
2018-12-08T14:07:44.510Z,20.00
2018-12-08T14:10:13.296Z,20.00
2018-12-08T14:12:41.949Z,20.00
2018-12-08T14:15:10.807Z,20.00
2018-12-08T14:17:39.456Z,20.00
2018-12-08T14:20:23.765Z,20.00
2018-12-08T14:22:52.449Z,20.00
2018-12-08T14:25:21.142Z,20.00
2018-12-08T14:27:49.821Z,20.00
2018-12-08T14:30:18.551Z,20.00
2018-12-08T14:32:47.373Z,20.00
2018-12-08T14:35:15.997Z,20.00
2018-12-08T14:37:44.670Z,20.00
2018-12-08T14:40:14.215Z,20.00
2018-12-08T14:42:44.394Z,20.00
2018-12-08T14:45:13.130Z,20.00
2018-12-08T14:47:41.773Z,20.00
2018-12-08T14:50:11.540Z,20.00
2018-12-08T14:52:40.170Z,20.00
2018-12-08T14:55:10.652Z,20.00
2018-12-08T14:57:41.698Z,20.00
2018-12-08T15:00:12.105Z,20.00
2018-12-08T15:02:41.486Z,20.00
2018-12-08T15:05:12.369Z,20.00
2018-12-08T15:07:41.018Z,20.00
2018-12-08T15:10:11.521Z,19.90
2018-12-08T15:12:40.118Z,19.90
2018-12-08T15:15:09.963Z,19.90
2018-12-08T15:17:38.629Z,19.90
2018-12-08T15:20:08.988Z,19.90
2018-12-08T15:22:37.773Z,19.90
2018-12-08T15:25:08.333Z,19.90
2018-12-08T15:27:38.390Z,19.90
2018-12-08T15:30:08.475Z,19.90
2018-12-08T15:32:37.320Z,19.90
2018-12-08T15:35:11.027Z,19.90
2018-12-08T15:37:41.020Z,19.90
2018-12-08T15:40:10.427Z,19.90
2018-12-08T15:42:39.835Z,19.90
2018-12-08T15:45:10.489Z,19.90
2018-12-08T15:47:41.191Z,19.90
2018-12-08T15:50:12.254Z,19.90
2018-12-08T15:52:40.958Z,19.90
2018-12-08T15:55:09.576Z,19.90
2018-12-08T15:57:38.182Z,19.90
2018-12-08T16:00:09.618Z,19.90
2018-12-08T16:02:38.598Z,19.90
2018-12-08T16:07:35.766Z,19.90
2018-12-08T16:10:04.422Z,19.90
2018-12-08T16:12:33.066Z,19.90
2018-12-08T16:15:01.767Z,19.90
2018-12-08T16:17:30.434Z,19.90
2018-12-08T16:19:59.065Z,19.90
2018-12-08T16:22:27.724Z,19.90
2018-12-08T16:24:56.430Z,19.90
2018-12-08T16:27:25.106Z,19.90
2018-12-08T16:29:53.737Z,20.00
2018-12-08T16:32:22.367Z,20.30
2018-12-08T16:34:51.008Z,20.50
2018-12-08T16:37:19.669Z,20.70
2018-12-08T16:39:48.718Z,20.80
2018-12-08T16:42:18.338Z,20.90
2018-12-08T16:44:47.279Z,21.00
2018-12-08T16:47:16.197Z,21.10
2018-12-08T16:49:44.800Z,21.10
2018-12-08T16:52:13.496Z,21.20
2018-12-08T16:54:42.141Z,21.20
2018-12-08T16:57:10.765Z,21.20
2018-12-08T16:59:39.397Z,21.10
2018-12-08T17:02:08.071Z,20.90
2018-12-08T17:04:36.722Z,20.80
2018-12-08T17:07:05.357Z,20.80
2018-12-08T17:09:34.032Z,20.70
2018-12-08T17:12:02.691Z,20.60
2018-12-08T17:14:31.330Z,20.60
2018-12-08T17:16:59.966Z,20.60
2018-12-08T17:19:28.658Z,20.50
2018-12-08T17:21:57.299Z,20.50
2018-12-08T17:24:25.905Z,20.50
2018-12-08T17:26:54.595Z,20.40
2018-12-08T17:29:23.250Z,20.40
2018-12-08T17:31:51.900Z,20.40
2018-12-08T17:34:20.588Z,20.40
2018-12-08T17:36:49.305Z,20.30
2018-12-08T17:39:17.930Z,20.30
2018-12-08T17:41:46.606Z,20.30
2018-12-08T17:44:15.306Z,20.30
2018-12-08T17:46:44.033Z,20.30
2018-12-08T17:49:12.695Z,20.20
2018-12-08T17:54:09.994Z,20.20
2018-12-08T17:56:38.658Z,20.20
2018-12-08T17:59:07.273Z,20.20
2018-12-08T18:01:35.941Z,20.20
2018-12-08T18:04:04.569Z,20.20
2018-12-08T18:06:33.191Z,20.20
2018-12-08T18:09:01.863Z,20.20
2018-12-08T18:11:30.518Z,20.20
2018-12-08T18:13:59.168Z,20.10
2018-12-08T18:16:27.845Z,19.90
2018-12-08T18:18:56.510Z,19.80
2018-12-08T18:21:25.218Z,19.70
2018-12-08T18:23:53.991Z,19.60
2018-12-08T18:26:22.669Z,19.50
2018-12-08T18:28:52.615Z,19.40
2018-12-08T18:31:21.304Z,19.30
2018-12-08T18:33:49.993Z,19.20
2018-12-08T18:36:19.320Z,19.30
2018-12-08T18:38:47.955Z,19.60
2018-12-08T18:41:16.615Z,20.00
2018-12-08T18:43:45.255Z,20.20
2018-12-08T18:46:13.891Z,20.40
2018-12-08T18:48:42.571Z,20.50
2018-12-08T18:51:11.241Z,20.60
2018-12-08T18:53:39.882Z,20.70
2018-12-08T18:56:08.542Z,20.80
2018-12-08T18:58:37.200Z,20.90
2018-12-08T19:01:05.818Z,21.00
2018-12-08T19:03:34.473Z,21.00
2018-12-08T19:06:03.106Z,21.10
2018-12-08T19:08:32.875Z,21.20
2018-12-08T19:11:01.585Z,21.20
2018-12-08T19:13:30.197Z,21.30
2018-12-08T19:15:58.852Z,21.30
2018-12-08T19:18:27.533Z,21.30
2018-12-08T19:20:56.148Z,21.40
2018-12-08T19:23:24.934Z,21.40
2018-12-08T19:25:53.600Z,21.40
2018-12-08T19:28:22.243Z,21.40
2018-12-08T19:30:50.873Z,21.50
2018-12-08T19:33:19.495Z,21.50
2018-12-08T19:35:48.348Z,21.50
2018-12-08T19:38:16.977Z,21.50
2018-12-08T19:40:45.594Z,21.50
2018-12-08T19:43:14.325Z,21.50
2018-12-08T19:45:42.991Z,21.50
2018-12-08T19:48:11.694Z,21.50
2018-12-08T19:53:09.018Z,21.50
2018-12-08T19:55:37.694Z,21.50
2018-12-08T19:58:06.334Z,21.50
2018-12-08T20:00:34.997Z,21.50
2018-12-08T20:03:03.689Z,21.40
2018-12-08T20:05:32.393Z,21.40
2018-12-08T20:08:01.091Z,21.40
2018-12-08T20:10:29.754Z,21.40
2018-12-08T20:12:58.435Z,21.40
2018-12-08T20:15:27.118Z,21.40
2018-12-08T20:17:55.759Z,21.40
2018-12-08T20:20:24.538Z,21.40
2018-12-08T20:22:53.300Z,21.40
2018-12-08T20:25:23.401Z,21.40
2018-12-08T20:27:52.738Z,21.40
2018-12-08T20:30:21.390Z,21.40
2018-12-08T20:32:50.270Z,21.40
2018-12-08T20:35:19.854Z,21.40
2018-12-08T20:37:48.903Z,21.40
2018-12-08T20:40:18.082Z,21.40
2018-12-08T20:42:47.010Z,21.40
2018-12-08T20:45:15.671Z,21.40
2018-12-08T20:47:44.310Z,21.40
2018-12-08T20:50:12.981Z,21.40
2018-12-08T20:52:41.618Z,21.40
2018-12-08T20:55:10.305Z,21.40
2018-12-08T20:57:39.022Z,21.40
2018-12-08T21:00:07.688Z,21.30
2018-12-08T21:02:36.388Z,21.40
2018-12-08T21:05:05.076Z,21.40
2018-12-08T21:07:33.713Z,21.30
2018-12-08T21:10:02.342Z,21.30
2018-12-08T21:12:30.997Z,21.40
2018-12-08T21:14:59.757Z,21.40
2018-12-08T21:17:28.638Z,21.30
2018-12-08T21:19:57.279Z,21.30
2018-12-08T21:22:25.969Z,21.30
2018-12-08T21:24:55.439Z,21.40
2018-12-08T21:27:24.146Z,21.40
2018-12-08T21:29:52.976Z,21.40
2018-12-08T21:32:21.613Z,21.40
2018-12-08T21:34:50.205Z,21.40
2018-12-08T21:37:18.850Z,21.40
2018-12-08T21:39:47.486Z,21.40
2018-12-08T21:42:16.111Z,21.40
2018-12-08T21:44:44.738Z,21.40
2018-12-08T21:47:13.414Z,21.40
2018-12-08T21:49:42.030Z,21.40
2018-12-08T21:52:10.853Z,21.40
2018-12-08T21:54:39.516Z,21.40
2018-12-08T21:57:08.202Z,21.30
2018-12-08T21:59:36.864Z,21.30
2018-12-08T22:02:05.489Z,21.20
2018-12-08T22:04:34.100Z,21.20
2018-12-08T22:07:02.723Z,21.20
2018-12-08T22:09:31.321Z,21.20
2018-12-08T22:11:59.969Z,21.20
2018-12-08T22:14:28.593Z,21.20
2018-12-08T22:17:01.706Z,21.30
2018-12-08T22:19:35.687Z,21.30
2018-12-08T22:22:04.325Z,21.30
2018-12-08T22:27:01.273Z,21.30
2018-12-08T22:29:29.970Z,21.30
2018-12-08T22:31:58.575Z,21.40
2018-12-08T22:34:27.248Z,21.40
2018-12-08T22:36:55.846Z,21.40
2018-12-08T22:39:24.495Z,21.40
2018-12-08T22:41:53.266Z,21.40
2018-12-08T22:44:21.902Z,21.40
2018-12-08T22:46:50.549Z,21.40
2018-12-08T22:49:19.190Z,21.40
2018-12-08T22:51:47.820Z,21.40
2018-12-08T22:54:17.399Z,21.40
2018-12-08T22:56:46.084Z,21.50
2018-12-08T22:59:14.753Z,21.50
2018-12-08T23:01:43.406Z,21.50
2018-12-08T23:04:12.338Z,21.50
2018-12-08T23:06:41.060Z,21.50
2018-12-08T23:09:09.725Z,21.50
2018-12-08T23:11:38.363Z,21.50
2018-12-08T23:14:07.042Z,21.50
2018-12-08T23:16:35.694Z,21.50
2018-12-08T23:19:04.331Z,21.50
2018-12-08T23:21:32.976Z,21.50
2018-12-08T23:24:01.621Z,21.50
2018-12-08T23:26:30.229Z,21.50
2018-12-08T23:28:58.892Z,21.50
2018-12-08T23:31:28.221Z,21.50
2018-12-08T23:33:56.838Z,21.50
2018-12-08T23:36:25.507Z,21.50
2018-12-08T23:38:54.170Z,21.50
2018-12-08T23:41:22.810Z,21.50
2018-12-08T23:43:51.462Z,21.50
2018-12-08T23:46:20.086Z,21.50
2018-12-08T23:48:48.726Z,21.50
2018-12-08T23:51:18.565Z,21.40
2018-12-08T23:53:47.535Z,21.20
2018-12-08T23:56:16.215Z,21.00
2018-12-08T23:58:44.907Z,20.90
